VSP202 SBDN-SBPP
Flight info
| Callsign | VSP202 |
|---|---|
| Flight time | N/A |
| Altitude | 7999 |
| Route | DCT |
| Aircraft | DC3/M-SDE3C/C |
Departure
| Time | N/A |
|---|---|
| Airport | Presidente Prudente Airport (SBDN) |
Arrival
| Time | 2026-05-06 15:01 |
|---|---|
| Airport | Ponta Porã Airport (SBPP) |
| Time | Latitude | Longitude | Altitude | Speed | Heading |
|---|---|---|---|---|---|
| 2026-05-06 13:24 | -21.78315 | -51.64307 | 5868 ft | 173 kts | 354° |
| 2026-05-06 13:24 | -21.77129 | -51.64453 | 5859 ft | 171 kts | 0° |
| 2026-05-06 13:24 | -21.75939 | -51.64458 | 5828 ft | 170 kts | 6° |
| 2026-05-06 13:25 | -21.74764 | -51.64334 | 5804 ft | 169 kts | 12° |
| 2026-05-06 13:25 | -21.73629 | -51.64037 | 5790 ft | 168 kts | 20° |
| 2026-05-06 13:25 | -21.72555 | -51.63560 | 5779 ft | 167 kts | 28° |
| 2026-05-06 13:25 | -21.71550 | -51.62944 | 5777 ft | 166 kts | 34° |
| 2026-05-06 13:26 | -21.70604 | -51.62231 | 5782 ft | 164 kts | 35° |
| 2026-05-06 13:26 | -21.69526 | -51.61831 | 5758 ft | 168 kts | 8° |
| 2026-05-06 13:26 | -21.68387 | -51.62172 | 5731 ft | 178 kts | 330° |
| 2026-05-06 13:26 | -21.67502 | -51.63080 | 5665 ft | 176 kts | 322° |
| 2026-05-06 13:27 | -21.66449 | -51.63665 | 5579 ft | 170 kts | 354° |
| 2026-05-06 13:27 | -21.65336 | -51.63417 | 5494 ft | 166 kts | 33° |
| 2026-05-06 13:27 | -21.64683 | -51.62429 | 5496 ft | 167 kts | 73° |
| 2026-05-06 13:27 | -21.64840 | -51.61195 | 5470 ft | 175 kts | 115° |
| 2026-05-06 13:28 | -21.65805 | -51.60366 | 5447 ft | 187 kts | 157° |
| 2026-05-06 13:28 | -21.67119 | -51.60405 | 5444 ft | 196 kts | 195° |
| 2026-05-06 13:28 | -21.68334 | -51.61052 | 5435 ft | 194 kts | 206° |
| 2026-05-06 13:28 | -21.69529 | -51.61737 | 5401 ft | 194 kts | 206° |
| 2026-05-06 13:29 | -21.70718 | -51.62416 | 5402 ft | 194 kts | 207° |
| 2026-05-06 13:29 | -21.71902 | -51.63117 | 5409 ft | 194 kts | 207° |
| 2026-05-06 13:29 | -21.72956 | -51.63997 | 5381 ft | 193 kts | 227° |
| 2026-05-06 13:29 | -21.73841 | -51.65086 | 5388 ft | 193 kts | 228° |
| 2026-05-06 13:30 | -21.74718 | -51.66187 | 5402 ft | 194 kts | 230° |
| 2026-05-06 13:30 | -21.75592 | -51.67291 | 5389 ft | 194 kts | 229° |
| 2026-05-06 13:30 | -21.76465 | -51.68401 | 5419 ft | 194 kts | 231° |
| 2026-05-06 13:30 | -21.77330 | -51.69520 | 5413 ft | 195 kts | 230° |
| 2026-05-06 13:31 | -21.78203 | -51.70636 | 5428 ft | 195 kts | 230° |
| 2026-05-06 13:31 | -21.79074 | -51.71754 | 5448 ft | 195 kts | 230° |
| 2026-05-06 13:31 | -21.79945 | -51.72875 | 5449 ft | 195 kts | 230° |
| 2026-05-06 13:31 | -21.80626 | -51.74107 | 5395 ft | 192 kts | 254° |
| 2026-05-06 13:32 | -21.80903 | -51.75485 | 5382 ft | 191 kts | 262° |
| 2026-05-06 13:32 | -21.81155 | -51.76890 | 5375 ft | 191 kts | 262° |
| 2026-05-06 13:32 | -21.81394 | -51.78299 | 5416 ft | 192 kts | 262° |
| 2026-05-06 13:32 | -21.81646 | -51.79713 | 5391 ft | 193 kts | 261° |
| 2026-05-06 13:33 | -21.81889 | -51.81130 | 5389 ft | 193 kts | 263° |
| 2026-05-06 13:33 | -21.82103 | -51.82546 | 5459 ft | 189 kts | 263° |
| 2026-05-06 13:33 | -21.82283 | -51.83929 | 5582 ft | 184 kts | 266° |
| 2026-05-06 13:33 | -21.82415 | -51.85285 | 5653 ft | 180 kts | 267° |
| 2026-05-06 13:34 | -21.82550 | -51.86622 | 5742 ft | 179 kts | 266° |
| 2026-05-06 13:34 | -21.82698 | -51.87947 | 5850 ft | 177 kts | 266° |
| 2026-05-06 13:34 | -21.82823 | -51.89263 | 5901 ft | 176 kts | 268° |
| 2026-05-06 13:34 | -21.82916 | -51.90568 | 5977 ft | 172 kts | 270° |
| 2026-05-06 13:35 | -21.82938 | -51.91823 | 6170 ft | 161 kts | 276° |
| 2026-05-06 13:35 | -21.82844 | -51.92965 | 6396 ft | 151 kts | 281° |
| 2026-05-06 13:35 | -21.82683 | -51.94062 | 6655 ft | 146 kts | 285° |
| 2026-05-06 13:35 | -21.82487 | -51.95115 | 6877 ft | 142 kts | 287° |
| 2026-05-06 13:36 | -21.82273 | -51.96144 | 7113 ft | 139 kts | 288° |
| 2026-05-06 13:36 | -21.82052 | -51.97153 | 7299 ft | 138 kts | 289° |
| 2026-05-06 13:36 | -21.81813 | -51.98155 | 7472 ft | 141 kts | 291° |
| 2026-05-06 13:36 | -21.81522 | -51.99189 | 7668 ft | 147 kts | 292° |
| 2026-05-06 13:37 | -21.81204 | -52.00255 | 7888 ft | 151 kts | 294° |
| 2026-05-06 13:37 | -21.80840 | -52.01325 | 8145 ft | 153 kts | 298° |
| 2026-05-06 13:37 | -21.80389 | -52.02364 | 8419 ft | 154 kts | 302° |
| 2026-05-06 13:37 | -21.79906 | -52.03395 | 8700 ft | 154 kts | 303° |
| 2026-05-06 13:38 | -21.79405 | -52.04443 | 8842 ft | 166 kts | 303° |
| 2026-05-06 13:38 | -21.78834 | -52.05602 | 8817 ft | 183 kts | 303° |
| 2026-05-06 13:38 | -21.78211 | -52.06840 | 8822 ft | 193 kts | 303° |
| 2026-05-06 13:38 | -21.77540 | -52.08128 | 8851 ft | 200 kts | 304° |
| 2026-05-06 13:39 | -21.76821 | -52.09424 | 8882 ft | 201 kts | 306° |
| 2026-05-06 13:39 | -21.76078 | -52.10683 | 8925 ft | 197 kts | 308° |
| 2026-05-06 13:39 | -21.75349 | -52.11885 | 9022 ft | 193 kts | 308° |
| 2026-05-06 13:39 | -21.74574 | -52.13084 | 8928 ft | 196 kts | 310° |
| 2026-05-06 13:40 | -21.73764 | -52.14257 | 8908 ft | 194 kts | 312° |
| 2026-05-06 13:40 | -21.72920 | -52.15390 | 8889 ft | 193 kts | 314° |
| 2026-05-06 13:40 | -21.72044 | -52.16482 | 8864 ft | 192 kts | 316° |
| 2026-05-06 13:40 | -21.71139 | -52.17532 | 8842 ft | 191 kts | 318° |
| 2026-05-06 13:41 | -21.70203 | -52.18544 | 8822 ft | 190 kts | 321° |
| 2026-05-06 13:41 | -21.69569 | -52.19191 | 8806 ft | 189 kts | 322° |
| 2026-05-06 13:41 | -21.68551 | -52.20717 | 8750 ft | 196 kts | 293° |
| 2026-05-06 13:41 | -21.68520 | -52.22192 | 8674 ft | 205 kts | 257° |
| 2026-05-06 13:42 | -21.69292 | -52.23478 | 8611 ft | 208 kts | 222° |
| 2026-05-06 13:42 | -21.70557 | -52.24188 | 8567 ft | 206 kts | 190° |
| 2026-05-06 13:42 | -21.71962 | -52.24190 | 8539 ft | 201 kts | 172° |
| 2026-05-06 13:42 | -21.72876 | -52.24260 | 8464 ft | 204 kts | 195° |
| 2026-05-06 13:43 | -21.73854 | -52.25188 | 8780 ft | 183 kts | 248° |
| 2026-05-06 13:43 | -21.73999 | -52.26518 | 8774 ft | 182 kts | 272° |
| 2026-05-06 13:43 | -21.74024 | -52.27862 | 8920 ft | 178 kts | 273° |
| 2026-05-06 13:43 | -21.74068 | -52.29220 | 8859 ft | 185 kts | 270° |
| 2026-05-06 13:44 | -21.74427 | -52.30569 | 8822 ft | 194 kts | 242° |
| 2026-05-06 13:44 | -21.75411 | -52.31571 | 8808 ft | 199 kts | 206° |
| 2026-05-06 13:44 | -21.76747 | -52.31826 | 8772 ft | 196 kts | 169° |
| 2026-05-06 13:44 | -21.77953 | -52.31259 | 8760 ft | 183 kts | 137° |
| 2026-05-06 13:45 | -21.78918 | -52.31579 | 8652 ft | 179 kts | 257° |
| 2026-05-06 13:45 | -21.79633 | -52.33826 | 9442 ft | 133 kts | 254° |
| 2026-05-06 13:45 | -21.79945 | -52.34914 | 9087 ft | 173 kts | 258° |
| 2026-05-06 13:46 | -21.80253 | -52.36244 | 9010 ft | 185 kts | 259° |
| 2026-05-06 13:46 | -21.80560 | -52.37556 | 9110 ft | 184 kts | 256° |
| 2026-05-06 13:46 | -21.81040 | -52.38851 | 9113 ft | 188 kts | 246° |
| 2026-05-06 13:46 | -21.81590 | -52.40129 | 9159 ft | 188 kts | 248° |
| 2026-05-06 13:47 | -21.82068 | -52.41442 | 9222 ft | 189 kts | 252° |
| 2026-05-06 13:47 | -21.82528 | -52.42771 | 9278 ft | 190 kts | 252° |
| 2026-05-06 13:47 | -21.82960 | -52.44112 | 9317 ft | 190 kts | 253° |
| 2026-05-06 13:47 | -21.83404 | -52.45456 | 9348 ft | 190 kts | 252° |
| 2026-05-06 13:48 | -21.83837 | -52.46803 | 9392 ft | 190 kts | 253° |
| 2026-05-06 13:48 | -21.84275 | -52.48148 | 9458 ft | 190 kts | 253° |
| 2026-05-06 13:48 | -21.84699 | -52.49484 | 9460 ft | 192 kts | 253° |
| 2026-05-06 13:48 | -21.85142 | -52.50848 | 9492 ft | 193 kts | 253° |
| 2026-05-06 13:49 | -21.85582 | -52.52219 | 9528 ft | 194 kts | 253° |
| 2026-05-06 13:49 | -21.86023 | -52.53592 | 9559 ft | 194 kts | 253° |
| 2026-05-06 13:49 | -21.86469 | -52.54962 | 9577 ft | 195 kts | 253° |
| 2026-05-06 13:49 | -21.86911 | -52.56345 | 9593 ft | 195 kts | 254° |
| 2026-05-06 13:50 | -21.87358 | -52.57728 | 9609 ft | 196 kts | 253° |
| 2026-05-06 13:50 | -21.87806 | -52.59116 | 9597 ft | 196 kts | 253° |
| 2026-05-06 13:50 | -21.88249 | -52.60512 | 9589 ft | 197 kts | 253° |
| 2026-05-06 13:50 | -21.88702 | -52.61903 | 9585 ft | 197 kts | 253° |
| 2026-05-06 13:51 | -21.89163 | -52.63291 | 9636 ft | 197 kts | 253° |
| 2026-05-06 13:51 | -21.89635 | -52.64675 | 9682 ft | 197 kts | 252° |
| 2026-05-06 13:51 | -21.90084 | -52.66065 | 9688 ft | 196 kts | 254° |
| 2026-05-06 13:51 | -21.90511 | -52.67439 | 9696 ft | 196 kts | 254° |
| 2026-05-06 13:52 | -21.90934 | -52.68834 | 9690 ft | 196 kts | 255° |
| 2026-05-06 13:52 | -21.91363 | -52.70247 | 9718 ft | 196 kts | 254° |
| 2026-05-06 13:52 | -21.91790 | -52.71619 | 9747 ft | 196 kts | 255° |
| 2026-05-06 13:52 | -21.92216 | -52.73010 | 9754 ft | 196 kts | 254° |
| 2026-05-06 13:53 | -21.92648 | -52.74401 | 9795 ft | 195 kts | 255° |
| 2026-05-06 13:53 | -21.93073 | -52.75789 | 9787 ft | 195 kts | 255° |
| 2026-05-06 13:53 | -21.93495 | -52.77178 | 9809 ft | 195 kts | 255° |
| 2026-05-06 13:53 | -21.93913 | -52.78575 | 9835 ft | 195 kts | 255° |
| 2026-05-06 13:54 | -21.94343 | -52.79960 | 9860 ft | 195 kts | 255° |
| 2026-05-06 13:54 | -21.94760 | -52.81320 | 9916 ft | 193 kts | 255° |
| 2026-05-06 13:54 | -21.95191 | -52.82696 | 9859 ft | 196 kts | 254° |
| 2026-05-06 13:54 | -21.95615 | -52.84095 | 9860 ft | 197 kts | 255° |
| 2026-05-06 13:55 | -21.96048 | -52.85500 | 9875 ft | 198 kts | 254° |
| 2026-05-06 13:55 | -21.96481 | -52.86908 | 9898 ft | 198 kts | 255° |
| 2026-05-06 13:55 | -21.96902 | -52.88321 | 9897 ft | 198 kts | 256° |
| 2026-05-06 13:55 | -21.97321 | -52.89738 | 9855 ft | 198 kts | 255° |
| 2026-05-06 13:56 | -21.97785 | -52.91143 | 9874 ft | 199 kts | 252° |
| 2026-05-06 13:56 | -21.98318 | -52.92527 | 9835 ft | 200 kts | 249° |
| 2026-05-06 13:56 | -21.98894 | -52.93896 | 9808 ft | 201 kts | 247° |
| 2026-05-06 13:56 | -21.99508 | -52.95227 | 9808 ft | 201 kts | 245° |
| 2026-05-06 13:57 | -22.00185 | -52.96548 | 9807 ft | 202 kts | 242° |
| 2026-05-06 13:57 | -22.00914 | -52.97842 | 9767 ft | 202 kts | 240° |
| 2026-05-06 13:57 | -22.01689 | -52.99109 | 9793 ft | 202 kts | 237° |
| 2026-05-06 13:57 | -22.02516 | -53.00336 | 9805 ft | 202 kts | 233° |
| 2026-05-06 13:58 | -22.03359 | -53.01539 | 9793 ft | 200 kts | 238° |
| 2026-05-06 13:58 | -22.04042 | -53.02846 | 9790 ft | 200 kts | 248° |
| 2026-05-06 13:58 | -22.04527 | -53.04242 | 9797 ft | 198 kts | 256° |
| 2026-05-06 13:58 | -22.04833 | -53.05687 | 9773 ft | 197 kts | 262° |
| 2026-05-06 13:59 | -22.05096 | -53.07137 | 9796 ft | 197 kts | 262° |
| 2026-05-06 13:59 | -22.05326 | -53.08591 | 9784 ft | 197 kts | 265° |
| 2026-05-06 13:59 | -22.05521 | -53.10051 | 9776 ft | 197 kts | 265° |
| 2026-05-06 13:59 | -22.05687 | -53.11515 | 9763 ft | 196 kts | 267° |
| 2026-05-06 14:00 | -22.05850 | -53.12976 | 9749 ft | 196 kts | 264° |
| 2026-05-06 14:00 | -22.06188 | -53.14389 | 9718 ft | 198 kts | 254° |
| 2026-05-06 14:00 | -22.06652 | -53.15788 | 9724 ft | 198 kts | 253° |
| 2026-05-06 14:00 | -22.07115 | -53.17188 | 9743 ft | 199 kts | 253° |
| 2026-05-06 14:01 | -22.07590 | -53.18588 | 9761 ft | 199 kts | 253° |
| 2026-05-06 14:01 | -22.08079 | -53.19983 | 9729 ft | 199 kts | 252° |
| 2026-05-06 14:01 | -22.08569 | -53.21379 | 9728 ft | 199 kts | 252° |
| 2026-05-06 14:01 | -22.09056 | -53.22778 | 9740 ft | 199 kts | 252° |
| 2026-05-06 14:02 | -22.09552 | -53.24177 | 9714 ft | 199 kts | 252° |
| 2026-05-06 14:02 | -22.10051 | -53.25573 | 9734 ft | 199 kts | 251° |
| 2026-05-06 14:02 | -22.10567 | -53.26961 | 9723 ft | 199 kts | 250° |
| 2026-05-06 14:02 | -22.11100 | -53.28342 | 9723 ft | 199 kts | 250° |
| 2026-05-06 14:03 | -22.11640 | -53.29722 | 9740 ft | 199 kts | 249° |
| 2026-05-06 14:03 | -22.12197 | -53.31092 | 9743 ft | 199 kts | 248° |
| 2026-05-06 14:03 | -22.12768 | -53.32456 | 9740 ft | 200 kts | 248° |
| 2026-05-06 14:03 | -22.13333 | -53.33804 | 9723 ft | 200 kts | 248° |
| 2026-05-06 14:04 | -22.13904 | -53.35170 | 9705 ft | 200 kts | 248° |
| 2026-05-06 14:04 | -22.14465 | -53.36539 | 9693 ft | 200 kts | 249° |
| 2026-05-06 14:04 | -22.15025 | -53.37911 | 9644 ft | 200 kts | 249° |
| 2026-05-06 14:04 | -22.15596 | -53.39277 | 9637 ft | 200 kts | 248° |
| 2026-05-06 14:05 | -22.16176 | -53.40640 | 9632 ft | 200 kts | 248° |
| 2026-05-06 14:05 | -22.16754 | -53.42003 | 9618 ft | 200 kts | 248° |
| 2026-05-06 14:05 | -22.17331 | -53.43365 | 9586 ft | 200 kts | 248° |
| 2026-05-06 14:05 | -22.17916 | -53.44726 | 9575 ft | 200 kts | 247° |
| 2026-05-06 14:06 | -22.18521 | -53.46075 | 9552 ft | 200 kts | 246° |
| 2026-05-06 14:06 | -22.19152 | -53.47412 | 9546 ft | 200 kts | 245° |
| 2026-05-06 14:06 | -22.19808 | -53.48737 | 9541 ft | 200 kts | 244° |
| 2026-05-06 14:06 | -22.20457 | -53.50062 | 9546 ft | 200 kts | 244° |
| 2026-05-06 14:07 | -22.21126 | -53.51381 | 9585 ft | 200 kts | 243° |
| 2026-05-06 14:07 | -22.21805 | -53.52690 | 9615 ft | 200 kts | 242° |
| 2026-05-06 14:07 | -22.22501 | -53.53992 | 9628 ft | 200 kts | 242° |
| 2026-05-06 14:07 | -22.23185 | -53.55278 | 9680 ft | 200 kts | 242° |
| 2026-05-06 14:08 | -22.23873 | -53.56606 | 9693 ft | 200 kts | 243° |
| 2026-05-06 14:08 | -22.24518 | -53.57910 | 9672 ft | 200 kts | 244° |
| 2026-05-06 14:08 | -22.25162 | -53.59243 | 9674 ft | 200 kts | 245° |
| 2026-05-06 14:08 | -22.25805 | -53.60570 | 9678 ft | 200 kts | 244° |
| 2026-05-06 14:09 | -22.26457 | -53.61896 | 9710 ft | 200 kts | 244° |
| 2026-05-06 14:09 | -22.27116 | -53.63217 | 9678 ft | 200 kts | 243° |
| 2026-05-06 14:09 | -22.27787 | -53.64532 | 9644 ft | 200 kts | 243° |
| 2026-05-06 14:09 | -22.28418 | -53.65862 | 9611 ft | 198 kts | 249° |
| 2026-05-06 14:10 | -22.28925 | -53.67225 | 9607 ft | 198 kts | 252° |
| 2026-05-06 14:10 | -22.29394 | -53.68638 | 9596 ft | 197 kts | 254° |
| 2026-05-06 14:10 | -22.29796 | -53.70036 | 9595 ft | 197 kts | 256° |
| 2026-05-06 14:10 | -22.30167 | -53.71464 | 9588 ft | 197 kts | 258° |
| 2026-05-06 14:11 | -22.30510 | -53.72896 | 9587 ft | 197 kts | 257° |
| 2026-05-06 14:11 | -22.30962 | -53.74296 | 9611 ft | 198 kts | 250° |
| 2026-05-06 14:11 | -22.31537 | -53.75654 | 9610 ft | 199 kts | 246° |
| 2026-05-06 14:11 | -22.32200 | -53.76969 | 9621 ft | 199 kts | 242° |
| 2026-05-06 14:12 | -22.32897 | -53.78262 | 9622 ft | 199 kts | 243° |
| 2026-05-06 14:12 | -22.33557 | -53.79575 | 9617 ft | 198 kts | 245° |
| 2026-05-06 14:12 | -22.34116 | -53.80932 | 9585 ft | 197 kts | 250° |
| 2026-05-06 14:12 | -22.34605 | -53.82251 | 9515 ft | 174 kts | 251° |
| 2026-05-06 14:13 | -22.35017 | -53.83365 | 9299 ft | 148 kts | 252° |
| 2026-05-06 14:13 | -22.35373 | -53.84327 | 9084 ft | 133 kts | 253° |
| 2026-05-06 14:13 | -22.35708 | -53.85226 | 8823 ft | 127 kts | 259° |
| 2026-05-06 14:13 | -22.36018 | -53.86138 | 8639 ft | 131 kts | 259° |
| 2026-05-06 14:14 | -22.36315 | -53.87073 | 8459 ft | 133 kts | 260° |
| 2026-05-06 14:14 | -22.36617 | -53.88023 | 8273 ft | 134 kts | 259° |
| 2026-05-06 14:14 | -22.36923 | -53.88989 | 8133 ft | 138 kts | 261° |
| 2026-05-06 14:14 | -22.37231 | -53.89977 | 7994 ft | 140 kts | 261° |
| 2026-05-06 14:15 | -22.37541 | -53.90982 | 7844 ft | 142 kts | 261° |
| 2026-05-06 14:15 | -22.37853 | -53.91993 | 7687 ft | 143 kts | 261° |
| 2026-05-06 14:15 | -22.38172 | -53.93018 | 7545 ft | 144 kts | 261° |
| 2026-05-06 14:15 | -22.38495 | -53.94046 | 7428 ft | 145 kts | 260° |
| 2026-05-06 14:16 | -22.38815 | -53.95080 | 7311 ft | 145 kts | 261° |
| 2026-05-06 14:16 | -22.39140 | -53.96108 | 7179 ft | 147 kts | 260° |
| 2026-05-06 14:16 | -22.39472 | -53.97154 | 7084 ft | 148 kts | 260° |
| 2026-05-06 14:16 | -22.39801 | -53.98204 | 6974 ft | 148 kts | 260° |
| 2026-05-06 14:17 | -22.40132 | -53.99252 | 6856 ft | 148 kts | 260° |
| 2026-05-06 14:17 | -22.40471 | -54.00304 | 6783 ft | 148 kts | 260° |
| 2026-05-06 14:17 | -22.40811 | -54.01354 | 6760 ft | 148 kts | 259° |
| 2026-05-06 14:17 | -22.41156 | -54.02405 | 6616 ft | 148 kts | 260° |
| 2026-05-06 14:18 | -22.41509 | -54.03458 | 6564 ft | 149 kts | 260° |
| 2026-05-06 14:18 | -22.41853 | -54.04510 | 6499 ft | 149 kts | 259° |
| 2026-05-06 14:18 | -22.42205 | -54.05563 | 6428 ft | 149 kts | 260° |
| 2026-05-06 14:18 | -22.42564 | -54.06620 | 6351 ft | 150 kts | 259° |
| 2026-05-06 14:19 | -22.42926 | -54.07677 | 6213 ft | 149 kts | 260° |
| 2026-05-06 14:19 | -22.43290 | -54.08725 | 6076 ft | 149 kts | 259° |
| 2026-05-06 14:19 | -22.43705 | -54.09837 | 6046 ft | 172 kts | 252° |
| 2026-05-06 14:19 | -22.44181 | -54.11085 | 6057 ft | 190 kts | 252° |
| 2026-05-06 14:20 | -22.44691 | -54.12454 | 6062 ft | 204 kts | 252° |
| 2026-05-06 14:20 | -22.45213 | -54.13894 | 6196 ft | 207 kts | 252° |
| 2026-05-06 14:20 | -22.45747 | -54.15349 | 6322 ft | 209 kts | 252° |
| 2026-05-06 14:20 | -22.46277 | -54.16829 | 6453 ft | 212 kts | 252° |
| 2026-05-06 14:21 | -22.46823 | -54.18319 | 6553 ft | 214 kts | 252° |
| 2026-05-06 14:21 | -22.47378 | -54.19827 | 6538 ft | 217 kts | 252° |
| 2026-05-06 14:21 | -22.47927 | -54.21359 | 6616 ft | 217 kts | 252° |
| 2026-05-06 14:21 | -22.48474 | -54.22842 | 6621 ft | 209 kts | 252° |
| 2026-05-06 14:22 | -22.49001 | -54.24277 | 6634 ft | 202 kts | 252° |
| 2026-05-06 14:22 | -22.49507 | -54.25680 | 6659 ft | 198 kts | 253° |
| 2026-05-06 14:22 | -22.50008 | -54.27053 | 6672 ft | 195 kts | 252° |
| 2026-05-06 14:22 | -22.50504 | -54.28409 | 6639 ft | 192 kts | 252° |
| 2026-05-06 14:23 | -22.50994 | -54.29750 | 6637 ft | 191 kts | 252° |
| 2026-05-06 14:23 | -22.51349 | -54.31101 | 6606 ft | 184 kts | 271° |
| 2026-05-06 14:23 | -22.51251 | -54.32446 | 6618 ft | 179 kts | 282° |
| 2026-05-06 14:23 | -22.51116 | -54.33783 | 6623 ft | 179 kts | 283° |
| 2026-05-06 14:24 | -22.50996 | -54.35119 | 6631 ft | 178 kts | 277° |
| 2026-05-06 14:24 | -22.51198 | -54.36464 | 6622 ft | 183 kts | 262° |
| 2026-05-06 14:24 | -22.51496 | -54.37807 | 6635 ft | 184 kts | 262° |
| 2026-05-06 14:24 | -22.51790 | -54.39156 | 6673 ft | 184 kts | 262° |
| 2026-05-06 14:25 | -22.52090 | -54.40506 | 6714 ft | 185 kts | 262° |
| 2026-05-06 14:25 | -22.52390 | -54.41857 | 6746 ft | 185 kts | 261° |
| 2026-05-06 14:25 | -22.52706 | -54.43204 | 6759 ft | 185 kts | 260° |
| 2026-05-06 14:25 | -22.53054 | -54.44530 | 6776 ft | 186 kts | 258° |
| 2026-05-06 14:26 | -22.53477 | -54.45851 | 6774 ft | 186 kts | 253° |
| 2026-05-06 14:26 | -22.53990 | -54.47144 | 6795 ft | 187 kts | 250° |
| 2026-05-06 14:26 | -22.54570 | -54.48414 | 6808 ft | 189 kts | 247° |
| 2026-05-06 14:26 | -22.55208 | -54.49657 | 6824 ft | 189 kts | 244° |
| 2026-05-06 14:27 | -22.55886 | -54.50880 | 6838 ft | 190 kts | 242° |
| 2026-05-06 14:27 | -22.56615 | -54.52073 | 6846 ft | 190 kts | 239° |
| 2026-05-06 14:27 | -22.57378 | -54.53245 | 6918 ft | 191 kts | 237° |
| 2026-05-06 14:27 | -22.58175 | -54.54394 | 6966 ft | 191 kts | 236° |
| 2026-05-06 14:28 | -22.59005 | -54.55517 | 6941 ft | 191 kts | 234° |
| 2026-05-06 14:28 | -22.59681 | -54.56714 | 6895 ft | 184 kts | 256° |
| 2026-05-06 14:28 | -22.59714 | -54.58050 | 6851 ft | 176 kts | 292° |
| 2026-05-06 14:28 | -22.59039 | -54.59079 | 6832 ft | 165 kts | 325° |
| 2026-05-06 14:29 | -22.58259 | -54.59974 | 6789 ft | 169 kts | 304° |
| 2026-05-06 14:29 | -22.58013 | -54.60788 | 6773 ft | 173 kts | 288° |
| 2026-05-06 14:29 | -22.57455 | -54.62392 | 6794 ft | 169 kts | 306° |
| 2026-05-06 14:29 | -22.57003 | -54.63066 | 6835 ft | 166 kts | 313° |
| 2026-05-06 14:30 | -22.56392 | -54.64602 | 6821 ft | 170 kts | 294° |
| 2026-05-06 14:30 | -22.56079 | -54.65392 | 6788 ft | 168 kts | 303° |
| 2026-05-06 14:30 | -22.55460 | -54.66433 | 6817 ft | 166 kts | 307° |
| 2026-05-06 14:30 | -22.55120 | -54.67657 | 6788 ft | 177 kts | 280° |
| 2026-05-06 14:31 | -22.55354 | -54.68996 | 6758 ft | 187 kts | 252° |
| 2026-05-06 14:31 | -22.56140 | -54.70127 | 6583 ft | 195 kts | 233° |
| 2026-05-06 14:31 | -22.56717 | -54.71457 | 6420 ft | 190 kts | 268° |
| 2026-05-06 14:31 | -22.56811 | -54.72842 | 6430 ft | 182 kts | 268° |
| 2026-05-06 14:32 | -22.57090 | -54.74186 | 6316 ft | 187 kts | 262° |
| 2026-05-06 14:32 | -22.57505 | -54.75520 | 6254 ft | 191 kts | 245° |
| 2026-05-06 14:32 | -22.58437 | -54.76561 | 6245 ft | 191 kts | 225° |
| 2026-05-06 14:32 | -22.58871 | -54.77630 | 6422 ft | 162 kts | 258° |
| 2026-05-06 14:33 | -22.59231 | -54.78925 | 6087 ft | 186 kts | 260° |
| 2026-05-06 14:33 | -22.59559 | -54.80286 | 6122 ft | 186 kts | 262° |
| 2026-05-06 14:33 | -22.59845 | -54.81656 | 6166 ft | 186 kts | 263° |
| 2026-05-06 14:33 | -22.60138 | -54.83024 | 6182 ft | 186 kts | 262° |
| 2026-05-06 14:34 | -22.60435 | -54.84389 | 6197 ft | 186 kts | 263° |
| 2026-05-06 14:34 | -22.60709 | -54.85759 | 6169 ft | 186 kts | 264° |
| 2026-05-06 14:34 | -22.60930 | -54.87136 | 6198 ft | 185 kts | 268° |
| 2026-05-06 14:34 | -22.61086 | -54.88515 | 6260 ft | 184 kts | 270° |
| 2026-05-06 14:35 | -22.61208 | -54.89895 | 6321 ft | 184 kts | 271° |
| 2026-05-06 14:35 | -22.61305 | -54.91275 | 6342 ft | 184 kts | 272° |
| 2026-05-06 14:35 | -22.61369 | -54.92636 | 6381 ft | 183 kts | 274° |
| 2026-05-06 14:35 | -22.61383 | -54.94009 | 6388 ft | 182 kts | 276° |
| 2026-05-06 14:36 | -22.61381 | -54.95381 | 6422 ft | 182 kts | 276° |
| 2026-05-06 14:36 | -22.61368 | -54.96752 | 6461 ft | 182 kts | 277° |
| 2026-05-06 14:36 | -22.61342 | -54.98118 | 6476 ft | 181 kts | 278° |
| 2026-05-06 14:36 | -22.61299 | -54.99479 | 6472 ft | 181 kts | 279° |
| 2026-05-06 14:37 | -22.61223 | -55.00840 | 6468 ft | 180 kts | 281° |
| 2026-05-06 14:37 | -22.61095 | -55.02184 | 6544 ft | 178 kts | 283° |
| 2026-05-06 14:37 | -22.60910 | -55.03507 | 6585 ft | 177 kts | 286° |
| 2026-05-06 14:37 | -22.60673 | -55.04805 | 6610 ft | 175 kts | 289° |
| 2026-05-06 14:38 | -22.60405 | -55.06089 | 6637 ft | 174 kts | 290° |
| 2026-05-06 14:38 | -22.60121 | -55.07343 | 6649 ft | 174 kts | 291° |
| 2026-05-06 14:38 | -22.59795 | -55.08601 | 6713 ft | 174 kts | 292° |
| 2026-05-06 14:38 | -22.59433 | -55.09846 | 6773 ft | 172 kts | 295° |
| 2026-05-06 14:39 | -22.59043 | -55.11072 | 6814 ft | 172 kts | 296° |
| 2026-05-06 14:39 | -22.58615 | -55.12280 | 6900 ft | 171 kts | 298° |
| 2026-05-06 14:39 | -22.58135 | -55.13456 | 6919 ft | 170 kts | 302° |
| 2026-05-06 14:39 | -22.57572 | -55.14572 | 7013 ft | 168 kts | 306° |
| 2026-05-06 14:40 | -22.56947 | -55.15638 | 7048 ft | 167 kts | 310° |
| 2026-05-06 14:40 | -22.56257 | -55.16645 | 7058 ft | 166 kts | 313° |
| 2026-05-06 14:40 | -22.55553 | -55.17636 | 7060 ft | 166 kts | 314° |
| 2026-05-06 14:40 | -22.54828 | -55.18611 | 7095 ft | 166 kts | 315° |
| 2026-05-06 14:41 | -22.54104 | -55.19562 | 7100 ft | 166 kts | 315° |
| 2026-05-06 14:41 | -22.53353 | -55.20518 | 7143 ft | 166 kts | 316° |
| 2026-05-06 14:41 | -22.52568 | -55.21433 | 7171 ft | 166 kts | 320° |
| 2026-05-06 14:41 | -22.51743 | -55.22299 | 7188 ft | 165 kts | 321° |
| 2026-05-06 14:42 | -22.50940 | -55.23175 | 7227 ft | 166 kts | 311° |
| 2026-05-06 14:42 | -22.50586 | -55.24383 | 7249 ft | 172 kts | 279° |
| 2026-05-06 14:42 | -22.50443 | -55.25680 | 7157 ft | 177 kts | 286° |
| 2026-05-06 14:42 | -22.50343 | -55.27001 | 7175 ft | 179 kts | 270° |
| 2026-05-06 14:43 | -22.50627 | -55.28332 | 7155 ft | 184 kts | 255° |
| 2026-05-06 14:43 | -22.51205 | -55.29585 | 7148 ft | 188 kts | 240° |
| 2026-05-06 14:43 | -22.52038 | -55.30686 | 7149 ft | 190 kts | 228° |
| 2026-05-06 14:43 | -22.53016 | -55.31654 | 7167 ft | 190 kts | 225° |
| 2026-05-06 14:44 | -22.53960 | -55.32626 | 7171 ft | 189 kts | 229° |
| 2026-05-06 14:44 | -22.54739 | -55.33762 | 7159 ft | 187 kts | 245° |
| 2026-05-06 14:44 | -22.55228 | -55.35050 | 7202 ft | 184 kts | 258° |
| 2026-05-06 14:45 | -22.55855 | -55.37721 | 7219 ft | 183 kts | 261° |
| 2026-05-06 14:45 | -22.56150 | -55.39065 | 7259 ft | 183 kts | 262° |
| 2026-05-06 14:45 | -22.56436 | -55.40403 | 7274 ft | 182 kts | 262° |
| 2026-05-06 14:45 | -22.56679 | -55.41749 | 7308 ft | 182 kts | 267° |
| 2026-05-06 14:46 | -22.56818 | -55.43101 | 7339 ft | 181 kts | 271° |
| 2026-05-06 14:46 | -22.56905 | -55.44457 | 7345 ft | 180 kts | 271° |
| 2026-05-06 14:46 | -22.56971 | -55.45790 | 7398 ft | 180 kts | 272° |
| 2026-05-06 14:46 | -22.57035 | -55.47140 | 7423 ft | 179 kts | 272° |
| 2026-05-06 14:47 | -22.57105 | -55.48487 | 7430 ft | 179 kts | 272° |
| 2026-05-06 14:47 | -22.57133 | -55.49833 | 7421 ft | 178 kts | 276° |
| 2026-05-06 14:47 | -22.57107 | -55.51168 | 7470 ft | 177 kts | 277° |
| 2026-05-06 14:47 | -22.57083 | -55.52500 | 7508 ft | 177 kts | 277° |
| 2026-05-06 14:48 | -22.57048 | -55.53828 | 7477 ft | 177 kts | 277° |
| 2026-05-06 14:48 | -22.56992 | -55.55161 | 7475 ft | 177 kts | 278° |
| 2026-05-06 14:48 | -22.56947 | -55.56501 | 7543 ft | 178 kts | 277° |
| 2026-05-06 14:48 | -22.56929 | -55.57845 | 7519 ft | 179 kts | 276° |
| 2026-05-06 14:49 | -22.56933 | -55.59195 | 7532 ft | 180 kts | 275° |
| 2026-05-06 14:49 | -22.56956 | -55.60552 | 7528 ft | 181 kts | 275° |
| 2026-05-06 14:49 | -22.56997 | -55.61914 | 7528 ft | 181 kts | 274° |
| 2026-05-06 14:49 | -22.57042 | -55.63275 | 7561 ft | 180 kts | 275° |
| 2026-05-06 14:50 | -22.57025 | -55.64626 | 7570 ft | 179 kts | 278° |
| 2026-05-06 14:50 | -22.56987 | -55.65955 | 7598 ft | 179 kts | 277° |
| 2026-05-06 14:50 | -22.56942 | -55.67298 | 7573 ft | 178 kts | 279° |
| 2026-05-06 14:50 | -22.56862 | -55.68631 | 7593 ft | 177 kts | 279° |
| 2026-05-06 14:51 | -22.56808 | -55.69965 | 7614 ft | 177 kts | 279° |
| 2026-05-06 14:51 | -22.56745 | -55.71295 | 7629 ft | 178 kts | 278° |
| 2026-05-06 14:51 | -22.56689 | -55.72636 | 7615 ft | 178 kts | 278° |
| 2026-05-06 14:51 | -22.56643 | -55.73981 | 7304 ft | 182 kts | 278° |
| 2026-05-06 14:52 | -22.56558 | -55.75418 | 6695 ft | 197 kts | 282° |
| 2026-05-06 14:52 | -22.56234 | -55.76787 | 6504 ft | 173 kts | 303° |
| 2026-05-06 14:52 | -22.55550 | -55.77708 | 6396 ft | 150 kts | 329° |
| 2026-05-06 14:52 | -22.54594 | -55.78036 | 6118 ft | 142 kts | 4° |
| 2026-05-06 14:53 | -22.53737 | -55.77580 | 5855 ft | 146 kts | 45° |
| 2026-05-06 14:53 | -22.53456 | -55.76524 | 5512 ft | 161 kts | 85° |
| 2026-05-06 14:53 | -22.54021 | -55.75382 | 5087 ft | 185 kts | 127° |
| 2026-05-06 14:53 | -22.55039 | -55.74496 | 4851 ft | 184 kts | 137° |
| 2026-05-06 14:54 | -22.56097 | -55.73781 | 4720 ft | 175 kts | 143° |
| 2026-05-06 14:54 | -22.57121 | -55.73174 | 4619 ft | 158 kts | 137° |
| 2026-05-06 14:54 | -22.57756 | -55.72412 | 4796 ft | 119 kts | 102° |
| 2026-05-06 14:54 | -22.58010 | -55.71600 | 4799 ft | 118 kts | 92° |
| 2026-05-06 14:55 | -22.58145 | -55.70723 | 4737 ft | 124 kts | 85° |
| 2026-05-06 14:55 | -22.58186 | -55.69720 | 4418 ft | 140 kts | 82° |
| 2026-05-06 14:55 | -22.57972 | -55.68866 | 4574 ft | 98 kts | 40° |
| 2026-05-06 14:55 | -22.57352 | -55.68772 | 4578 ft | 97 kts | 2° |
| 2026-05-06 14:56 | -22.56668 | -55.68577 | 4430 ft | 106 kts | 25° |
| 2026-05-06 14:56 | -22.55966 | -55.68201 | 4190 ft | 123 kts | 29° |
| 2026-05-06 14:56 | -22.55246 | -55.67705 | 4191 ft | 121 kts | 31° |
| 2026-05-06 14:56 | -22.54502 | -55.67320 | 4114 ft | 119 kts | 23° |
| 2026-05-06 14:57 | -22.53703 | -55.67069 | 3941 ft | 121 kts | 17° |
| 2026-05-06 14:57 | -22.52892 | -55.66867 | 3888 ft | 119 kts | 16° |
| 2026-05-06 14:57 | -22.52083 | -55.66648 | 3790 ft | 120 kts | 15° |
| 2026-05-06 14:57 | -22.51273 | -55.66419 | 3648 ft | 115 kts | 20° |
| 2026-05-06 14:58 | -22.50545 | -55.66136 | 3516 ft | 111 kts | 19° |
| 2026-05-06 14:58 | -22.49830 | -55.66273 | 3462 ft | 115 kts | 330° |
| 2026-05-06 14:58 | -22.49565 | -55.67145 | 3196 ft | 135 kts | 280° |
| 2026-05-06 14:58 | -22.49544 | -55.68147 | 3111 ft | 131 kts | 283° |
| 2026-05-06 14:59 | -22.49540 | -55.69094 | 3218 ft | 121 kts | 270° |
| 2026-05-06 14:59 | -22.50212 | -55.69632 | 3078 ft | 136 kts | 179° |
| 2026-05-06 14:59 | -22.51149 | -55.69603 | 3019 ft | 130 kts | 178° |
| 2026-05-06 14:59 | -22.52049 | -55.69589 | 2846 ft | 127 kts | 174° |
| 2026-05-06 15:00 | -22.52900 | -55.69588 | 2619 ft | 116 kts | 179° |
| 2026-05-06 15:00 | -22.53692 | -55.69757 | 2390 ft | 118 kts | 194° |
| 2026-05-06 15:00 | -22.54460 | -55.70076 | 2142 ft | 110 kts | 194° |
| 2026-05-06 15:00 | -22.55077 | -55.70305 | 2144 ft | 78 kts | 201° |
| 2026-05-06 15:01 | -22.55468 | -55.70457 | 2152 ft | 39 kts | 227° |
| 2026-05-06 15:01 | -22.55521 | -55.70558 | 2154 ft | 3 kts | 240° |
| 2026-05-06 15:01 | -22.55523 | -55.70562 | 2154 ft | 0 kts | 240° |
| 2026-05-06 15:01 | -22.55525 | -55.70568 | 2154 ft | 2 kts | 284° |
| 2026-05-06 15:02 | -22.55507 | -55.70570 | 2150 ft | 5 kts | 23° |
| 2026-05-06 15:02 | -22.55464 | -55.70553 | 2151 ft | 9 kts | 16° |
| 2026-05-06 15:02 | -22.55396 | -55.70521 | 2147 ft | 12 kts | 21° |
| 2026-05-06 15:02 | -22.55307 | -55.70516 | 2149 ft | 13 kts | 348° |
| 2026-05-06 15:03 | -22.55232 | -55.70525 | 2147 ft | 10 kts | 358° |
| 2026-05-06 15:03 | -22.55198 | -55.70526 | 2146 ft | 0 kts | 358° |
| 2026-05-06 15:04 | -22.55199 | -55.70526 | 2146 ft | 0 kts | 358° |
| 2026-05-06 15:06 | -22.55200 | -55.70526 | 2146 ft | 0 kts | 358° |